createdAt,value
2018-05-01T00:00:19.395Z,0.00
2018-05-01T00:02:50.090Z,1.00
2018-05-01T00:05:22.351Z,1.00
2018-05-01T00:07:53.367Z,0.00
2018-05-01T00:10:24.205Z,0.50
2018-05-01T00:12:54.610Z,0.00
2018-05-01T00:15:28.185Z,0.25
2018-05-01T00:17:59.455Z,1.00
2018-05-01T00:20:29.901Z,1.00
2018-05-01T00:23:00.823Z,0.00
2018-05-01T00:25:31.537Z,1.00
2018-05-01T00:28:03.694Z,0.00
2018-05-01T00:30:35.154Z,1.00
2018-05-01T00:33:06.193Z,0.00
2018-05-01T00:35:38.935Z,1.00
2018-05-01T00:38:10.341Z,0.00
2018-05-01T00:40:40.593Z,0.25
2018-05-01T00:43:10.926Z,1.00
2018-05-01T00:45:41.582Z,1.00
2018-05-01T00:48:12.092Z,1.00
2018-05-01T00:50:42.410Z,0.50
2018-05-01T00:53:12.842Z,1.00
2018-05-01T00:55:47.763Z,1.00
2018-05-01T00:58:31.352Z,1.00
2018-05-01T01:01:03.167Z,1.00
2018-05-01T01:03:33.725Z,0.50
2018-05-01T01:06:04.071Z,1.00
2018-05-01T01:08:34.799Z,1.00
2018-05-01T01:11:05.232Z,0.00
2018-05-01T01:13:35.574Z,0.00
2018-05-01T01:16:06.724Z,0.00
2018-05-01T01:18:37.087Z,1.00
2018-05-01T01:21:14.349Z,1.00
2018-05-01T01:23:45.221Z,1.00
2018-05-01T01:26:15.783Z,1.00
2018-05-01T01:28:46.319Z,2.50
2018-05-01T01:31:17.661Z,1.00
2018-05-01T01:33:48.434Z,1.00
2018-05-01T01:36:17.237Z,1.00
2018-05-01T01:38:49.844Z,1.00
2018-05-01T01:41:18.486Z,2.50
2018-05-01T01:43:47.573Z,1.00
2018-05-01T01:46:16.727Z,1.00
2018-05-01T01:48:45.884Z,1.00
2018-05-01T01:51:14.656Z,3.00
2018-05-01T01:53:43.551Z,2.50
2018-05-01T01:56:12.520Z,1.00
2018-05-01T01:58:42.552Z,3.00
2018-05-01T02:01:11.298Z,3.00
2018-05-01T02:03:40.906Z,3.00
2018-05-01T02:06:09.733Z,3.00
2018-05-01T02:08:38.719Z,3.25
2018-05-01T02:11:07.426Z,3.00
2018-05-01T02:13:37.488Z,3.00
2018-05-01T02:16:06.667Z,3.75
2018-05-01T02:18:35.685Z,3.00
2018-05-01T02:21:04.730Z,4.00
2018-05-01T02:23:33.554Z,3.00
2018-05-01T02:26:07.224Z,4.00
2018-05-01T02:28:36.228Z,3.25
2018-05-01T02:31:05.216Z,3.25
2018-05-01T02:33:34.424Z,3.25
2018-05-01T02:36:03.487Z,3.00
2018-05-01T02:38:32.564Z,3.50
2018-05-01T02:41:01.236Z,3.25
2018-05-01T02:43:30.265Z,4.00
2018-05-01T02:45:59.167Z,4.00
2018-05-01T02:48:28.197Z,6.75
2018-05-01T02:53:31.922Z,5.00
2018-05-01T02:56:00.780Z,6.00
2018-05-01T02:58:30.019Z,6.00
2018-05-01T03:00:59.134Z,7.75
2018-05-01T03:03:28.332Z,7.75
2018-05-01T03:05:58.553Z,6.00
2018-05-01T03:08:27.291Z,6.00
2018-05-01T03:10:58.730Z,6.00
2018-05-01T03:13:27.740Z,7.25
2018-05-01T03:15:57.046Z,6.00
2018-05-01T03:18:30.480Z,7.75
2018-05-01T03:21:00.317Z,7.25
2018-05-01T03:23:29.044Z,8.50
2018-05-01T03:25:57.734Z,9.50
2018-05-01T03:28:26.798Z,6.00
2018-05-01T03:30:58.950Z,9.00
2018-05-01T03:33:33.509Z,7.25
2018-05-01T03:36:02.946Z,7.25
2018-05-01T03:38:31.866Z,7.75
2018-05-01T03:41:01.244Z,9.00
2018-05-01T03:43:30.251Z,9.00
2018-05-01T03:45:59.086Z,8.50
2018-05-01T03:48:28.152Z,11.00
2018-05-01T03:50:57.987Z,8.00
2018-05-01T03:53:26.705Z,9.00
2018-05-01T03:55:56.587Z,9.50
2018-05-01T03:58:25.695Z,9.00
2018-05-01T04:00:54.816Z,10.75
2018-05-01T04:03:25.021Z,9.00
2018-05-01T04:05:54.312Z,9.00
2018-05-01T04:08:23.179Z,9.00
2018-05-01T04:10:52.330Z,11.50
2018-05-01T04:13:21.293Z,11.00
2018-05-01T04:15:50.574Z,9.25
2018-05-01T04:18:19.704Z,10.75
2018-05-01T04:20:48.704Z,12.50
2018-05-01T04:23:17.425Z,14.50
2018-05-01T04:25:47.831Z,14.00
2018-05-01T04:28:17.592Z,11.75
2018-05-01T04:30:46.433Z,15.25
2018-05-01T04:33:15.319Z,15.75
2018-05-01T04:35:44.477Z,14.00
2018-05-01T04:38:14.001Z,14.75
2018-05-01T04:40:42.608Z,16.75
2018-05-01T04:43:11.589Z,15.00
2018-05-01T04:45:40.618Z,12.00
2018-05-01T04:48:09.371Z,16.50
2018-05-01T04:50:39.296Z,16.75
2018-05-01T04:53:08.132Z,11.75
2018-05-01T04:55:38.416Z,16.50
2018-05-01T04:58:07.309Z,16.25
2018-05-01T05:00:37.869Z,14.00
2018-05-01T05:03:06.821Z,14.00
2018-05-01T05:05:35.806Z,20.00
2018-05-01T05:08:04.597Z,13.00
2018-05-01T05:10:33.755Z,13.50
2018-05-01T05:13:03.347Z,18.25
2018-05-01T05:15:32.391Z,14.50
2018-05-01T05:18:02.060Z,15.00
2018-05-01T05:20:34.761Z,16.00
2018-05-01T05:23:03.925Z,16.50
2018-05-01T05:25:32.716Z,14.75
2018-05-01T05:28:01.443Z,11.25
2018-05-01T05:30:30.367Z,12.00
2018-05-01T05:32:59.477Z,15.00
2018-05-01T05:35:28.273Z,11.75
2018-05-01T05:37:57.421Z,13.75
2018-05-01T05:40:26.205Z,13.75
2018-05-01T05:42:55.304Z,14.25
2018-05-01T05:45:24.362Z,16.75
2018-05-01T05:47:53.391Z,13.25
2018-05-01T05:50:22.393Z,12.00
2018-05-01T05:52:51.230Z,14.75
2018-05-01T05:55:20.648Z,13.50
2018-05-01T05:57:49.440Z,13.75
2018-05-01T06:00:18.265Z,13.75
2018-05-01T06:02:47.234Z,13.25
2018-05-01T06:05:16.011Z,14.50
2018-05-01T06:07:44.839Z,13.75
2018-05-01T06:10:13.940Z,15.00
2018-05-01T06:12:42.656Z,14.25
2018-05-01T06:15:21.836Z,13.75
2018-05-01T06:17:51.867Z,16.75
2018-05-01T06:20:21.157Z,13.25
2018-05-01T06:22:49.927Z,12.75
2018-05-01T06:25:19.539Z,13.50
2018-05-01T06:27:48.281Z,12.00
2018-05-01T06:30:17.285Z,12.75
2018-05-01T06:32:46.148Z,14.00
2018-05-01T06:35:15.233Z,12.00
2018-05-01T06:37:44.486Z,12.00
2018-05-01T06:40:13.624Z,12.00
2018-05-01T06:42:42.390Z,12.00
2018-05-01T06:45:13.889Z,11.50
2018-05-01T06:47:43.164Z,12.75
2018-05-01T06:50:12.054Z,15.00
2018-05-01T06:52:40.854Z,12.00
2018-05-01T06:55:10.419Z,11.25
2018-05-01T06:57:39.139Z,14.25
2018-05-01T07:00:08.331Z,11.75
2018-05-01T07:02:37.775Z,12.50
2018-05-01T07:05:07.107Z,10.00
2018-05-01T07:07:38.174Z,13.25
2018-05-01T07:10:07.893Z,12.50
2018-05-01T07:12:36.822Z,15.00
2018-05-01T07:15:05.844Z,13.00
2018-05-01T07:17:34.554Z,12.00
2018-05-01T07:20:03.448Z,12.00
2018-05-01T07:22:32.412Z,11.25
2018-05-01T07:25:01.501Z,11.00
2018-05-01T07:27:30.537Z,13.00
2018-05-01T07:29:59.582Z,12.75
2018-05-01T07:32:28.545Z,11.75
2018-05-01T07:35:00.608Z,13.75
2018-05-01T07:37:29.330Z,10.75
2018-05-01T07:39:59.092Z,13.75
2018-05-01T07:42:29.140Z,13.50
2018-05-01T07:44:58.661Z,12.50
2018-05-01T07:47:28.017Z,13.25
2018-05-01T07:49:57.904Z,12.75
2018-05-01T07:52:26.891Z,12.75
2018-05-01T07:54:58.446Z,13.75
2018-05-01T07:57:27.861Z,14.00
2018-05-01T07:59:56.948Z,12.50
2018-05-01T08:02:27.374Z,15.00
2018-05-01T08:04:56.824Z,14.00
2018-05-01T08:10:08.138Z,14.25
2018-05-01T08:12:38.516Z,12.00
2018-05-01T08:15:07.529Z,14.00
2018-05-01T08:17:36.959Z,14.00
2018-05-01T08:20:05.774Z,14.00
2018-05-01T08:22:37.744Z,18.50
2018-05-01T08:25:06.758Z,13.75
2018-05-01T08:27:36.190Z,15.00
2018-05-01T08:30:06.623Z,14.25
2018-05-01T08:32:36.969Z,14.75
2018-05-01T08:35:06.819Z,14.25
2018-05-01T08:37:36.105Z,15.25
2018-05-01T08:40:05.678Z,14.50
2018-05-01T08:42:35.645Z,16.50
2018-05-01T08:45:06.268Z,15.75
2018-05-01T08:47:36.586Z,14.25
2018-05-01T08:50:06.012Z,18.50
2018-05-01T08:52:35.683Z,17.25
2018-05-01T08:55:05.346Z,15.00
2018-05-01T08:57:34.165Z,14.25
2018-05-01T09:00:09.910Z,16.00
2018-05-01T09:02:42.632Z,15.00
2018-05-01T09:05:11.726Z,17.00
2018-05-01T09:07:44.949Z,16.50
2018-05-01T09:10:16.448Z,12.75
2018-05-01T09:12:46.677Z,18.25
2018-05-01T09:15:16.543Z,16.00
2018-05-01T09:17:46.181Z,14.00
2018-05-01T09:20:15.367Z,13.75
2018-05-01T09:22:45.492Z,12.50
2018-05-01T09:25:15.367Z,13.00
2018-05-01T09:27:44.322Z,12.25
2018-05-01T09:30:15.876Z,13.25
2018-05-01T09:32:45.075Z,11.25
2018-05-01T09:35:15.250Z,13.00
2018-05-01T09:37:44.110Z,12.75
2018-05-01T09:40:13.982Z,14.75
2018-05-01T09:42:46.109Z,13.25
2018-05-01T09:45:16.209Z,12.50
2018-05-01T09:47:48.802Z,14.25
2018-05-01T09:50:26.125Z,12.00
2018-05-01T09:53:00.473Z,11.50
2018-05-01T09:55:39.926Z,13.00
2018-05-01T09:58:14.329Z,15.25
2018-05-01T10:00:54.469Z,13.50
2018-05-01T10:03:30.924Z,12.75
2018-05-01T10:06:06.740Z,14.00
2018-05-01T10:08:57.888Z,13.00
2018-05-01T10:11:31.063Z,16.00
2018-05-01T10:14:04.685Z,14.25
2018-05-01T10:16:39.033Z,13.00
2018-05-01T10:19:15.199Z,13.00
2018-05-01T10:21:46.491Z,13.75
2018-05-01T10:26:52.365Z,15.75
2018-05-01T10:29:24.447Z,13.75
2018-05-01T10:32:02.980Z,13.50
2018-05-01T10:34:42.922Z,16.50
2018-05-01T10:37:13.858Z,17.25
2018-05-01T10:39:48.890Z,15.75
2018-05-01T10:42:21.159Z,16.75
2018-05-01T10:44:51.981Z,13.00
2018-05-01T10:47:24.245Z,14.00
2018-05-01T10:49:58.935Z,14.00
2018-05-01T10:52:32.618Z,15.00
2018-05-01T10:55:12.112Z,15.75
2018-05-01T10:57:45.968Z,14.50
2018-05-01T11:00:18.050Z,14.00
2018-05-01T11:02:49.322Z,13.00
2018-05-01T11:05:20.171Z,15.50
2018-05-01T11:07:57.473Z,15.00
2018-05-01T11:10:35.209Z,15.75
2018-05-01T11:13:07.573Z,14.00
2018-05-01T11:15:39.762Z,17.00
2018-05-01T11:18:14.311Z,18.75
2018-05-01T11:20:45.324Z,15.50
2018-05-01T11:23:17.679Z,17.00
2018-05-01T11:25:48.583Z,19.00
2018-05-01T11:28:33.965Z,17.75
2018-05-01T11:31:19.880Z,17.25
2018-05-01T11:33:55.325Z,17.00
2018-05-01T11:36:37.522Z,14.75
2018-05-01T11:39:18.800Z,14.50
2018-05-01T11:42:07.596Z,17.75
2018-05-01T11:44:48.177Z,16.50
2018-05-01T11:47:20.103Z,16.50
2018-05-01T11:49:50.640Z,19.25
2018-05-01T11:52:22.641Z,19.00
2018-05-01T11:54:54.629Z,19.50
2018-05-01T11:57:28.352Z,16.50
2018-05-01T11:59:59.438Z,17.00
2018-05-01T12:02:30.732Z,14.50
2018-05-01T12:05:01.717Z,16.75
2018-05-01T12:07:34.344Z,16.00
2018-05-01T12:10:06.482Z,14.75
2018-05-01T12:12:37.564Z,15.50
2018-05-01T12:15:08.927Z,17.75
2018-05-01T12:17:42.233Z,15.75
2018-05-01T12:20:12.987Z,14.50
2018-05-01T12:22:50.966Z,16.25
2018-05-01T12:25:23.170Z,13.50
2018-05-01T12:27:54.950Z,12.00
2018-05-01T12:30:35.267Z,7.75
2018-05-01T12:33:34.798Z,11.00
2018-05-01T12:38:48.192Z,8.75
2018-05-01T12:41:18.636Z,10.25
2018-05-01T12:43:50.774Z,10.25
2018-05-01T12:46:22.997Z,10.75
2018-05-01T12:48:56.008Z,10.75
2018-05-01T12:51:32.742Z,8.25
2018-05-01T12:54:13.976Z,10.75
2018-05-01T12:56:45.553Z,9.25
2018-05-01T12:59:15.963Z,10.00
2018-05-01T13:01:46.939Z,10.75
2018-05-01T13:04:19.287Z,9.00
2018-05-01T13:06:51.155Z,8.75
2018-05-01T13:09:23.414Z,9.00
2018-05-01T13:11:54.858Z,8.00
2018-05-01T13:14:25.423Z,9.00
2018-05-01T13:16:59.862Z,9.00
2018-05-01T13:19:39.865Z,8.00
2018-05-01T13:22:13.545Z,7.00
2018-05-01T13:24:50.614Z,8.00
2018-05-01T13:27:26.701Z,6.00
2018-05-01T13:29:59.245Z,6.75
2018-05-01T13:32:30.995Z,6.00
2018-05-01T13:35:02.698Z,6.50
2018-05-01T13:37:33.591Z,6.50
2018-05-01T13:40:04.771Z,6.25
2018-05-01T13:42:37.103Z,7.50
2018-05-01T13:45:15.666Z,8.00
2018-05-01T13:47:48.603Z,7.00
2018-05-01T13:50:21.757Z,8.00
2018-05-01T13:52:54.321Z,8.00
2018-05-01T13:55:25.115Z,7.00
2018-05-01T13:57:56.721Z,7.50
2018-05-01T14:00:29.161Z,7.50
2018-05-01T14:03:05.086Z,9.75
2018-05-01T14:05:36.630Z,8.75
2018-05-01T14:08:11.478Z,9.00
2018-05-01T14:10:42.018Z,9.00
2018-05-01T14:13:14.127Z,9.00
2018-05-01T14:15:47.131Z,9.00
2018-05-01T14:18:18.405Z,9.00
2018-05-01T14:23:28.480Z,8.00
2018-05-01T14:25:59.433Z,9.00
2018-05-01T14:28:32.492Z,8.75
2018-05-01T14:31:05.737Z,7.75
2018-05-01T14:33:37.031Z,7.75
2018-05-01T14:36:13.213Z,5.50
2018-05-01T14:44:12.844Z,6.75
2018-05-01T14:46:44.407Z,6.00
2018-05-01T14:49:18.074Z,7.25
2018-05-01T14:51:50.877Z,8.25
2018-05-01T14:54:42.313Z,8.00
2018-05-01T15:00:27.880Z,7.75
2018-05-01T15:03:09.802Z,8.50
2018-05-01T15:05:40.305Z,9.00
2018-05-01T15:08:11.537Z,9.00
2018-05-01T15:10:45.821Z,8.75
2018-05-01T15:13:17.223Z,8.75
2018-05-01T15:15:49.754Z,8.25
2018-05-01T15:18:21.429Z,8.75
2018-05-01T15:20:52.054Z,8.75
2018-05-01T15:23:33.805Z,10.00
2018-05-01T15:26:06.650Z,11.00
2018-05-01T15:28:37.548Z,11.00
2018-05-01T15:31:14.650Z,9.50
2018-05-01T15:33:45.652Z,10.00
2018-05-01T15:36:17.110Z,10.00
2018-05-01T15:38:48.299Z,9.75
2018-05-01T15:41:23.307Z,10.00
2018-05-01T15:43:56.373Z,9.00
2018-05-01T15:46:27.203Z,9.25
2018-05-01T15:49:00.570Z,8.50
2018-05-01T15:51:47.238Z,10.00
2018-05-01T15:54:18.867Z,10.00
2018-05-01T15:56:51.187Z,9.00
2018-05-01T15:59:25.411Z,8.75
2018-05-01T16:02:28.302Z,10.75
2018-05-01T16:05:02.033Z,9.75
2018-05-01T16:10:31.648Z,10.75
2018-05-01T16:15:40.761Z,12.75
2018-05-01T16:18:13.430Z,12.25
2018-05-01T16:21:07.289Z,11.50
2018-05-01T16:23:48.144Z,12.00
2018-05-01T16:26:20.372Z,12.00
2018-05-01T16:28:52.238Z,10.25
2018-05-01T16:31:23.412Z,9.00
2018-05-01T16:33:54.194Z,12.50
2018-05-01T16:36:24.724Z,11.75
2018-05-01T16:38:58.085Z,12.75
2018-05-01T16:41:31.105Z,12.25
2018-05-01T16:44:06.169Z,11.50
2018-05-01T16:49:21.065Z,13.75
2018-05-01T16:51:53.637Z,9.25
2018-05-01T16:54:24.410Z,12.00
2018-05-01T16:56:56.522Z,12.25
2018-05-01T16:59:27.261Z,10.75
2018-05-01T17:01:58.546Z,13.50
2018-05-01T17:04:29.480Z,11.25
2018-05-01T17:06:59.915Z,11.50
2018-05-01T17:09:34.210Z,13.00
2018-05-01T17:12:05.954Z,12.50
2018-05-01T17:14:36.586Z,12.00
2018-05-01T17:17:10.885Z,13.00
2018-05-01T17:19:45.246Z,15.25
2018-05-01T17:25:01.804Z,12.00
2018-05-01T17:27:37.657Z,13.00
2018-05-01T17:30:14.515Z,12.00
2018-05-01T17:32:59.376Z,13.00
2018-05-01T17:35:29.882Z,11.00
2018-05-01T17:38:00.593Z,11.00
2018-05-01T17:40:31.368Z,11.00
2018-05-01T17:43:02.373Z,13.00
2018-05-01T17:45:34.815Z,17.50
2018-05-01T17:48:12.783Z,19.75
2018-05-01T17:50:43.306Z,16.75
2018-05-01T17:53:13.720Z,11.00
2018-05-01T17:55:45.724Z,13.25
2018-05-01T17:58:26.282Z,12.00
2018-05-01T18:00:57.408Z,12.00
2018-05-01T18:03:28.199Z,11.50
2018-05-01T18:05:58.694Z,12.00
2018-05-01T18:08:29.960Z,13.50
2018-05-01T18:11:00.349Z,12.50
2018-05-01T18:13:30.865Z,18.25
2018-05-01T18:16:02.294Z,11.75
2018-05-01T18:18:34.161Z,13.50
2018-05-01T18:21:04.513Z,11.25
2018-05-01T18:23:35.454Z,11.00
2018-05-01T18:26:06.009Z,12.75
2018-05-01T18:28:36.925Z,19.75
2018-05-01T18:31:08.420Z,11.75
2018-05-01T18:33:38.847Z,16.75
2018-05-01T18:36:21.205Z,11.00
2018-05-01T18:38:52.694Z,9.50
2018-05-01T18:41:23.383Z,10.75
2018-05-01T18:43:53.751Z,8.50
2018-05-01T18:46:25.437Z,9.50
2018-05-01T18:49:02.311Z,11.00
2018-05-01T18:51:35.593Z,14.50
2018-05-01T18:54:08.033Z,9.50
2018-05-01T18:56:38.566Z,11.00
2018-05-01T18:59:09.104Z,10.50
2018-05-01T19:01:40.682Z,11.00
2018-05-01T19:04:11.728Z,10.25
2018-05-01T19:06:43.588Z,9.00
2018-05-01T19:09:14.986Z,10.50
2018-05-01T19:11:45.613Z,10.25
2018-05-01T19:14:16.191Z,11.00
2018-05-01T19:16:47.571Z,9.50
2018-05-01T19:19:19.560Z,11.00
2018-05-01T19:21:55.550Z,10.25
2018-05-01T19:24:28.828Z,10.25
2018-05-01T19:27:00.489Z,11.25
2018-05-01T19:29:32.192Z,10.50
2018-05-01T19:32:03.880Z,11.00
2018-05-01T19:34:34.704Z,10.50
2018-05-01T19:37:06.107Z,9.50
2018-05-01T19:39:36.592Z,11.75
2018-05-01T19:42:07.817Z,10.50
2018-05-01T19:44:41.971Z,10.00
2018-05-01T19:47:12.774Z,11.00
2018-05-01T19:49:43.942Z,10.75
2018-05-01T19:52:16.282Z,14.25
2018-05-01T19:54:48.732Z,12.75
2018-05-01T19:57:23.145Z,11.75
2018-05-01T19:59:54.102Z,12.00
2018-05-01T20:02:38.238Z,11.00
2018-05-01T20:05:08.735Z,12.75
2018-05-01T20:07:39.682Z,12.75
2018-05-01T20:10:10.456Z,11.75
2018-05-01T20:12:42.024Z,12.75
2018-05-01T20:15:16.479Z,11.75
2018-05-01T20:17:49.142Z,11.00
2018-05-01T20:20:19.876Z,11.75
2018-05-01T20:22:50.897Z,13.00
2018-05-01T20:25:21.417Z,11.00
2018-05-01T20:27:54.008Z,11.25
2018-05-01T20:30:24.895Z,12.00
2018-05-01T20:32:55.423Z,12.75
2018-05-01T20:35:27.020Z,11.75
2018-05-01T20:37:57.554Z,11.25
2018-05-01T20:40:27.871Z,13.00
2018-05-01T20:42:58.763Z,14.50
2018-05-01T20:45:30.454Z,11.75
2018-05-01T20:48:02.121Z,12.75
2018-05-01T20:50:36.019Z,12.75
2018-05-01T20:53:07.951Z,11.75
2018-05-01T20:55:38.209Z,10.25
2018-05-01T20:58:12.256Z,12.25
2018-05-01T21:00:43.566Z,13.00
2018-05-01T21:03:14.162Z,11.75
2018-05-01T21:05:44.909Z,12.75
2018-05-01T21:08:15.638Z,12.25
2018-05-01T21:10:46.880Z,11.75
2018-05-01T21:13:17.260Z,13.00
2018-05-01T21:15:47.940Z,11.00
2018-05-01T21:18:19.415Z,10.00
2018-05-01T21:20:50.661Z,12.75
2018-05-01T21:23:22.050Z,11.00
2018-05-01T21:25:55.940Z,11.50
2018-05-01T21:28:27.787Z,10.00
2018-05-01T21:31:00.750Z,11.00
2018-05-01T21:33:32.809Z,10.00
2018-05-01T21:36:04.495Z,10.50
2018-05-01T21:38:35.467Z,10.50
2018-05-01T21:41:09.907Z,12.75
2018-05-01T21:43:40.538Z,11.00
2018-05-01T21:46:11.513Z,15.75
2018-05-01T21:48:41.860Z,13.25
2018-05-01T21:51:12.246Z,15.50
2018-05-01T21:53:42.428Z,16.00
2018-05-01T21:56:13.682Z,17.75
2018-05-01T21:58:44.206Z,16.00
2018-05-01T22:01:14.914Z,14.75
2018-05-01T22:03:46.951Z,15.50
2018-05-01T22:06:18.086Z,17.50
2018-05-01T22:08:48.515Z,17.25
2018-05-01T22:11:20.652Z,16.75
2018-05-01T22:13:51.833Z,17.75
2018-05-01T22:16:22.498Z,18.00
2018-05-01T22:18:55.585Z,16.25
2018-05-01T22:21:32.328Z,15.00
2018-05-01T22:24:09.078Z,18.25
2018-05-01T22:26:39.890Z,17.00
2018-05-01T22:29:11.862Z,18.00
2018-05-01T22:31:42.262Z,20.75
2018-05-01T22:34:12.623Z,19.50
2018-05-01T22:36:43.522Z,17.00
2018-05-01T22:39:13.859Z,18.25
2018-05-01T22:41:44.787Z,17.00
2018-05-01T22:44:16.393Z,18.00
2018-05-01T22:46:47.353Z,18.75
2018-05-01T22:49:18.085Z,17.00
2018-05-01T22:51:49.130Z,18.25
2018-05-01T22:54:20.040Z,15.75
2018-05-01T22:56:50.394Z,18.75
2018-05-01T22:59:20.935Z,16.75
2018-05-01T23:01:51.413Z,17.75
2018-05-01T23:04:22.234Z,16.50
2018-05-01T23:06:52.561Z,15.25
2018-05-01T23:09:23.944Z,16.50
2018-05-01T23:11:54.224Z,17.50
2018-05-01T23:14:33.054Z,17.25
2018-05-01T23:17:04.228Z,17.75
2018-05-01T23:19:35.657Z,17.75
2018-05-01T23:22:06.538Z,17.25
2018-05-01T23:24:36.955Z,20.75
2018-05-01T23:27:08.229Z,18.50
2018-05-01T23:29:39.852Z,18.00
2018-05-01T23:32:10.776Z,17.25
2018-05-01T23:34:42.017Z,17.75
2018-05-01T23:37:12.258Z,18.25
2018-05-01T23:39:42.566Z,18.25
2018-05-01T23:42:13.309Z,18.50
2018-05-01T23:44:43.835Z,17.25
2018-05-01T23:47:15.049Z,17.00
2018-05-01T23:49:45.796Z,19.25
2018-05-01T23:52:16.096Z,19.00
2018-05-01T23:54:47.448Z,15.00
2018-05-01T23:57:19.231Z,18.50
2018-05-01T23:59:49.580Z,16.25
